Mitchell, Canada
Current Conditions -  °F | °C
As of 8:00 PM on Tuesday 25 Nov 2014 (Local Time) from CYXU Reporting Station
Overcast Overcast  
Wind Chill: 22°   Ceiling: 4000
Heat Index: 30°   Visibility: 15mi
Dew Point: 25°   Wind: 9mph
Humidity: 80%   Direction: 250°WSW
Pressure: 30.12"   Gusts: NA
Location:  43.47°N, 81.18°W
Report Text: CYXU 260100Z 25008KT 15SM FEW020 OVC040 M01/M04 A3012 RMK SC2SC6 SLP212
Loading
Personal Weather Stations






























Interactive Weather Map New forecast layout! Learn more

10-Day Weather Forecast

Advertisements
Track Severe Weather on mobile